createdAt,value
2023-02-21T00:00:51.000Z,43.9
2023-02-21T00:02:07.714Z,40.4
2023-02-21T00:03:23.997Z,41.9
2023-02-21T00:04:40.000Z,47.8
2023-02-21T00:05:56.000Z,42.8
2023-02-21T00:07:12.000Z,37.8
2023-02-21T00:08:28.000Z,43.6
2023-02-21T00:09:44.000Z,44.8
2023-02-21T00:11:00.000Z,43
2023-02-21T00:12:16.000Z,43.7
2023-02-21T00:13:33.000Z,47.9
2023-02-21T00:14:49.000Z,45.4
2023-02-21T00:16:05.000Z,45
2023-02-21T00:17:21.000Z,40.6
2023-02-21T00:18:38.459Z,43.7
2023-02-21T00:19:54.000Z,46.8
2023-02-21T00:21:09.000Z,45
2023-02-21T00:22:25.000Z,42.5
2023-02-21T00:23:41.000Z,40.4
2023-02-21T00:24:56.000Z,45.4
2023-02-21T00:26:12.000Z,46.6
2023-02-21T00:27:28.000Z,42.3
2023-02-21T00:28:44.000Z,42.9
2023-02-21T00:30:00.000Z,48.6
2023-02-21T00:31:17.000Z,45.4
2023-02-21T00:32:33.000Z,43.2
2023-02-21T00:33:49.000Z,49.2
2023-02-21T00:35:06.000Z,42.6
2023-02-21T00:36:22.000Z,42.5
2023-02-21T00:37:38.872Z,45.4
2023-02-21T00:38:54.000Z,50
2023-02-21T00:40:11.000Z,52.4
2023-02-21T00:41:27.000Z,45.8
2023-02-21T00:42:42.000Z,43.3
2023-02-21T00:43:59.309Z,48
2023-02-21T00:45:15.000Z,44.7
2023-02-21T00:46:31.000Z,48.8
2023-02-21T00:47:47.000Z,42.6
2023-02-21T00:49:04.000Z,46.5
2023-02-21T00:50:20.000Z,46.9
2023-02-21T00:51:36.086Z,48.1
2023-02-21T00:52:51.000Z,48.5
2023-02-21T00:54:06.000Z,48.2
2023-02-21T00:55:21.000Z,42.5
2023-02-21T00:56:38.000Z,46.2
2023-02-21T00:57:54.000Z,43.5
2023-02-21T00:59:10.000Z,47.5
2023-02-21T01:00:26.000Z,55.6
2023-02-21T01:01:43.000Z,47.4
2023-02-21T01:02:59.000Z,52.4
2023-02-21T01:04:15.000Z,49.6
2023-02-21T01:05:32.000Z,46.4
2023-02-21T01:06:48.000Z,44.9
2023-02-21T01:08:04.000Z,52.7
2023-02-21T01:09:20.000Z,46
2023-02-21T01:10:37.000Z,51.9
2023-02-21T01:11:52.000Z,46
2023-02-21T01:13:08.000Z,49.7
2023-02-21T01:14:25.000Z,52
2023-02-21T01:15:41.000Z,41.9
2023-02-21T01:16:57.000Z,48.7
2023-02-21T01:18:13.000Z,55.1
2023-02-21T01:19:30.000Z,43.2
2023-02-21T01:20:45.777Z,46.2
2023-02-21T01:22:01.079Z,48.6
2023-02-21T01:23:17.000Z,48.4
2023-02-21T01:24:32.000Z,49.1
2023-02-21T01:25:47.000Z,56.5
2023-02-21T01:27:03.000Z,52.4
2023-02-21T01:28:19.000Z,48.3
2023-02-21T01:29:35.000Z,50.4
2023-02-21T01:30:52.143Z,54.2
2023-02-21T01:32:08.000Z,46.9
2023-02-21T01:33:24.000Z,44.6
2023-02-21T01:34:41.033Z,45.1
2023-02-21T01:35:57.000Z,46.8
2023-02-21T01:37:13.000Z,53.3
2023-02-21T01:38:29.000Z,46.5
2023-02-21T01:39:45.000Z,51.2
2023-02-21T01:41:02.000Z,51.8
2023-02-21T01:42:18.000Z,49.1
2023-02-21T01:43:33.000Z,48.7
2023-02-21T01:44:50.000Z,45
2023-02-21T01:46:06.000Z,52.7
2023-02-21T01:47:22.000Z,52.5
2023-02-21T01:48:38.000Z,47.9
2023-02-21T01:49:55.000Z,45.1
2023-02-21T01:51:11.000Z,49.5
2023-02-21T01:52:27.000Z,43.6
2023-02-21T01:53:44.000Z,45.2
2023-02-21T01:55:00.000Z,52.7
2023-02-21T01:56:16.000Z,49.3
2023-02-21T01:57:32.000Z,46.9
2023-02-21T01:58:49.000Z,48.3
2023-02-21T02:00:04.801Z,49.9
2023-02-21T02:01:20.000Z,51.9
2023-02-21T02:02:37.388Z,53.4
2023-02-21T02:03:53.000Z,57.8
2023-02-21T02:05:09.000Z,50.4
2023-02-21T02:06:25.000Z,49.7
2023-02-21T02:07:41.000Z,52.6
2023-02-21T02:08:56.000Z,49.6
2023-02-21T02:10:11.000Z,48.2
2023-02-21T02:11:27.468Z,50.2
2023-02-21T02:12:43.760Z,49.6
2023-02-21T02:14:00.054Z,52
2023-02-21T02:15:16.000Z,56.5
2023-02-21T02:16:32.000Z,53.7
2023-02-21T02:17:48.000Z,51.1
2023-02-21T02:19:04.000Z,51
2023-02-21T02:20:21.000Z,52.7
2023-02-21T02:21:37.000Z,54.8
2023-02-21T02:22:54.061Z,56.5
2023-02-21T02:24:10.355Z,52.1
2023-02-21T02:25:26.651Z,47.1
2023-02-21T02:26:42.000Z,58.7
2023-02-21T02:27:57.000Z,51
2023-02-21T02:29:14.000Z,48.9
2023-02-21T02:30:30.786Z,54.1
2023-02-21T02:31:46.000Z,57
2023-02-21T02:33:03.000Z,57.1
2023-02-21T02:34:19.000Z,52.1
2023-02-21T02:35:35.000Z,49.4
2023-02-21T02:36:51.000Z,58.9
2023-02-21T02:38:06.570Z,65.2
2023-02-21T02:39:22.000Z,46.2
2023-02-21T02:40:38.000Z,56.8
2023-02-21T02:41:54.463Z,47.9
2023-02-21T02:43:09.000Z,58.9
2023-02-21T02:44:25.000Z,47.2
2023-02-21T02:45:42.000Z,73.4
2023-02-21T02:46:58.000Z,53.1
2023-02-21T02:48:14.000Z,47.8
2023-02-21T02:49:30.000Z,54.8
2023-02-21T02:50:47.000Z,53.1
2023-02-21T02:52:03.000Z,55.4
2023-02-21T02:53:19.000Z,56.5
2023-02-21T02:54:36.000Z,52.3
2023-02-21T02:55:52.000Z,53.4
2023-02-21T02:57:08.000Z,52
2023-02-21T02:58:24.000Z,53.2
2023-02-21T02:59:40.000Z,52
2023-02-21T03:00:56.000Z,54.8
2023-02-21T03:02:12.000Z,50.3
2023-02-21T03:03:29.415Z,54.3
2023-02-21T03:04:45.000Z,56.5
2023-02-21T03:06:01.000Z,56.6
2023-02-21T03:07:17.000Z,51.2
2023-02-21T03:08:33.000Z,49.8
2023-02-21T03:09:48.870Z,61.7
2023-02-21T03:11:03.000Z,56.6
2023-02-21T03:12:19.000Z,48.4
2023-02-21T03:13:35.000Z,52.2
2023-02-21T03:14:51.000Z,53.5
2023-02-21T03:16:08.335Z,52.7
2023-02-21T03:17:24.000Z,56.3
2023-02-21T03:18:40.000Z,56.8
2023-02-21T03:19:56.000Z,56.6
2023-02-21T03:21:13.000Z,58.2
2023-02-21T03:22:29.000Z,58.1
2023-02-21T03:23:45.000Z,55.2
2023-02-21T03:25:02.000Z,53.1
2023-02-21T03:26:18.000Z,56
2023-02-21T03:27:34.000Z,58.7
2023-02-21T03:28:49.000Z,57.5
2023-02-21T03:30:06.000Z,57.2
2023-02-21T03:31:22.000Z,52.5
2023-02-21T03:32:38.000Z,59.4
2023-02-21T03:33:55.000Z,54.9
2023-02-21T03:35:11.000Z,53.4
2023-02-21T03:36:27.000Z,69.7
2023-02-21T03:37:43.000Z,52.1
2023-02-21T03:38:58.000Z,57.2
2023-02-21T03:40:13.000Z,55.3
2023-02-21T03:41:28.000Z,60
2023-02-21T03:42:45.000Z,61.8
2023-02-21T03:44:01.000Z,64.9
2023-02-21T03:45:17.000Z,64.7
2023-02-21T03:46:34.000Z,59.3
2023-02-21T03:47:50.000Z,65.7
2023-02-21T03:49:06.000Z,57.6
2023-02-21T03:50:22.000Z,55.6
2023-02-21T03:51:39.000Z,61.4
2023-02-21T03:52:55.762Z,62.8
2023-02-21T03:54:11.000Z,65.3
2023-02-21T03:55:28.334Z,61.7
2023-02-21T03:56:44.000Z,56.1
2023-02-21T03:57:59.000Z,55.8
2023-02-21T03:59:15.000Z,58.9
2023-02-21T04:00:32.000Z,66
2023-02-21T04:01:48.000Z,60.7
2023-02-21T04:03:05.076Z,58
2023-02-21T04:04:21.129Z,54.2
2023-02-21T04:05:37.000Z,61
2023-02-21T04:06:53.000Z,78
2023-02-21T04:08:09.000Z,67.7
2023-02-21T04:09:26.000Z,66.7
2023-02-21T04:10:42.000Z,56.7
2023-02-21T04:11:58.000Z,54.2
2023-02-21T04:13:15.000Z,59
2023-02-21T04:14:30.000Z,61.5
2023-02-21T04:15:46.000Z,63.6
2023-02-21T04:17:03.000Z,64.9
2023-02-21T04:18:19.000Z,54.3
2023-02-21T04:19:35.845Z,67.9
2023-02-21T04:20:51.000Z,62.5
2023-02-21T04:22:08.000Z,63.1
2023-02-21T04:23:24.000Z,59.2
2023-02-21T04:24:40.000Z,63.3
2023-02-21T04:25:57.000Z,64
2023-02-21T04:27:13.000Z,56.6
2023-02-21T04:28:29.000Z,61.1
2023-02-21T04:29:46.150Z,57.5
2023-02-21T04:31:01.000Z,64.3
2023-02-21T04:32:17.719Z,64.2
2023-02-21T04:33:33.000Z,53.6
2023-02-21T04:34:49.000Z,66.4
2023-02-21T04:36:04.000Z,55.6
2023-02-21T04:37:20.000Z,65.8
2023-02-21T04:38:35.000Z,59.6
2023-02-21T04:39:51.000Z,60.6
2023-02-21T04:41:07.825Z,65.8
2023-02-21T04:42:23.000Z,59.6
2023-02-21T04:43:40.000Z,64.2
2023-02-21T04:44:56.000Z,65.1
2023-02-21T04:46:12.000Z,66
2023-02-21T04:47:29.000Z,67.8
2023-02-21T04:48:45.000Z,65.8
2023-02-21T04:50:01.000Z,63
2023-02-21T04:51:17.000Z,69.8
2023-02-21T04:52:34.000Z,71.7
2023-02-21T04:53:50.000Z,73.8
2023-02-21T04:55:06.000Z,66.8
2023-02-21T04:56:22.000Z,72.1
2023-02-21T04:57:38.578Z,70.1
2023-02-21T04:58:54.000Z,68.2
2023-02-21T05:00:10.000Z,68
2023-02-21T05:01:27.000Z,62
2023-02-21T05:02:43.000Z,61.8
2023-02-21T05:03:59.000Z,64.3
2023-02-21T05:05:15.000Z,61.2
2023-02-21T05:06:30.000Z,66.7
2023-02-21T05:07:46.000Z,67
2023-02-21T05:09:02.000Z,54.9
2023-02-21T05:10:19.511Z,58.3
2023-02-21T05:11:35.793Z,66.3
2023-02-21T05:12:51.000Z,61.2
2023-02-21T05:14:08.000Z,59.6
2023-02-21T05:15:24.000Z,70.9
2023-02-21T05:16:40.000Z,63.5
2023-02-21T05:17:56.000Z,54.2
2023-02-21T05:19:13.000Z,54.5
2023-02-21T05:20:29.000Z,57.8
2023-02-21T05:21:45.000Z,64.1
2023-02-21T05:23:01.000Z,64.2
2023-02-21T05:24:17.000Z,58.6
2023-02-21T05:25:32.967Z,60.8
2023-02-21T05:26:48.307Z,59.1
2023-02-21T05:28:04.000Z,61.2
2023-02-21T05:29:20.000Z,61.9
2023-02-21T05:30:36.000Z,58.6
2023-02-21T05:31:53.000Z,54.9
2023-02-21T05:33:09.000Z,62
2023-02-21T05:34:25.000Z,55.6
2023-02-21T05:35:42.000Z,56.8
2023-02-21T05:36:58.000Z,56.8
2023-02-21T05:38:14.000Z,51.6
2023-02-21T05:39:30.000Z,70.9
2023-02-21T05:40:47.000Z,63.5
2023-02-21T05:42:02.000Z,62.6
2023-02-21T05:43:18.000Z,53
2023-02-21T05:44:35.000Z,53.2
2023-02-21T05:45:51.000Z,52.6
2023-02-21T05:47:07.000Z,55.2
2023-02-21T05:48:24.193Z,57.4
2023-02-21T05:49:40.000Z,57.5
2023-02-21T05:50:56.000Z,51.1
2023-02-21T05:52:11.000Z,58
2023-02-21T05:53:27.000Z,50.1
2023-02-21T05:54:42.000Z,48.6
2023-02-21T05:55:57.000Z,63.2
2023-02-21T05:57:14.000Z,51.6
2023-02-21T05:58:30.000Z,52.2
2023-02-21T05:59:46.000Z,50
2023-02-21T06:01:03.144Z,53.8
2023-02-21T06:02:19.000Z,54.3
2023-02-21T06:03:35.000Z,59.7
2023-02-21T06:04:51.000Z,63
2023-02-21T06:06:08.000Z,58.1
2023-02-21T06:07:24.000Z,63.1
2023-02-21T06:08:40.000Z,60
2023-02-21T06:09:56.000Z,59.1
2023-02-21T06:11:13.000Z,60.3
2023-02-21T06:12:28.000Z,59.1
2023-02-21T06:13:44.000Z,52.1
2023-02-21T06:15:00.000Z,63.9
2023-02-21T06:16:17.000Z,59.5
2023-02-21T06:17:33.692Z,52.1
2023-02-21T06:18:49.000Z,63.2
2023-02-21T06:20:05.000Z,51.5
2023-02-21T06:21:21.000Z,48.7
2023-02-21T06:22:36.000Z,61.4
2023-02-21T06:23:52.000Z,54.8
2023-02-21T06:25:09.111Z,58.1
2023-02-21T06:26:25.357Z,52.7
2023-02-21T06:27:41.601Z,58.5
2023-02-21T06:28:56.000Z,46.2
2023-02-21T06:30:11.000Z,51.4
2023-02-21T06:31:28.332Z,55.7
2023-02-21T06:32:44.000Z,59.3
2023-02-21T06:34:00.000Z,48.3
2023-02-21T06:35:16.000Z,55.7
2023-02-21T06:36:33.277Z,61.2
2023-02-21T06:37:49.000Z,47.3
2023-02-21T06:40:21.000Z,54.7
2023-02-21T06:41:37.000Z,44.8
2023-02-21T06:42:54.000Z,43.8
2023-02-21T06:44:10.000Z,53.1
2023-02-21T06:45:26.932Z,47
2023-02-21T06:46:42.149Z,49.4
2023-02-21T06:47:58.390Z,49.2
2023-02-21T06:49:14.000Z,50.9
2023-02-21T06:50:30.000Z,45.2
2023-02-21T06:51:46.000Z,48.1
2023-02-21T06:53:03.000Z,50
2023-02-21T06:54:19.000Z,56
2023-02-21T06:55:35.000Z,49.9
2023-02-21T06:56:51.000Z,42.1
2023-02-21T06:58:08.000Z,54.4
2023-02-21T06:59:23.000Z,42.2
2023-02-21T07:00:38.000Z,41.9
2023-02-21T07:01:54.000Z,48.1
2023-02-21T07:03:10.000Z,51
2023-02-21T07:04:26.500Z,51.5
2023-02-21T07:05:41.000Z,44.6
2023-02-21T07:06:57.000Z,45.8
2023-02-21T07:08:13.000Z,48.5
2023-02-21T07:09:30.000Z,46
2023-02-21T07:10:46.675Z,44.3
2023-02-21T07:13:19.152Z,40.9
2023-02-21T07:14:35.353Z,47.7
2023-02-21T07:15:51.000Z,47.3
2023-02-21T07:17:07.000Z,43.3
2023-02-21T07:18:23.000Z,46.4
2023-02-21T07:19:40.000Z,41.3
2023-02-21T07:20:56.000Z,38.9
2023-02-21T07:22:11.805Z,39.2
2023-02-21T07:23:27.000Z,42
2023-02-21T07:24:44.000Z,43.5
2023-02-21T07:26:00.000Z,33.7
2023-02-21T07:27:16.000Z,43.9
2023-02-21T07:28:32.978Z,39.7
2023-02-21T07:31:05.000Z,38.8
2023-02-21T07:32:21.652Z,48.4
2023-02-21T07:33:36.000Z,45.8
2023-02-21T07:34:51.000Z,44.6
2023-02-21T07:36:08.398Z,45.9
2023-02-21T07:37:23.000Z,48.5
2023-02-21T07:38:38.000Z,48.5
2023-02-21T07:39:54.000Z,46.5
2023-02-21T07:41:11.000Z,47.3
2023-02-21T07:42:27.623Z,51.7
2023-02-21T07:43:43.842Z,49.6
2023-02-21T07:44:59.000Z,50.3
2023-02-21T07:46:16.330Z,52.8
2023-02-21T07:47:32.000Z,48
2023-02-21T07:48:48.847Z,52.5
2023-02-21T07:50:04.000Z,54.9
2023-02-21T07:51:21.243Z,62.5
2023-02-21T07:52:37.000Z,51.5
2023-02-21T07:53:53.000Z,49.3
2023-02-21T07:56:24.000Z,55.3
2023-02-21T07:57:41.000Z,60
2023-02-21T07:58:57.663Z,61.3
2023-02-21T08:00:13.000Z,50
2023-02-21T08:01:29.000Z,60.1
2023-02-21T08:02:46.364Z,55.4
2023-02-21T08:04:02.000Z,64.9
2023-02-21T08:05:17.000Z,51.6
2023-02-21T08:06:33.118Z,57.3
2023-02-21T08:09:04.000Z,61.1
2023-02-21T08:10:19.000Z,52.1
2023-02-21T08:11:34.000Z,51.6
2023-02-21T08:12:51.000Z,60.1
2023-02-21T08:14:07.569Z,59.5
2023-02-21T08:15:23.000Z,59.5
2023-02-21T08:16:39.000Z,60.3
2023-02-21T08:17:56.000Z,52.7
2023-02-21T08:19:12.000Z,57.9
2023-02-21T08:20:28.743Z,52.2
2023-02-21T08:21:44.966Z,53.5
2023-02-21T08:23:00.000Z,61.7
2023-02-21T08:24:17.000Z,56.1
2023-02-21T08:25:33.000Z,62.5
2023-02-21T08:26:49.000Z,60.3
2023-02-21T08:28:04.000Z,53.5
2023-02-21T08:29:21.404Z,50.7
2023-02-21T08:30:37.000Z,60.2
2023-02-21T08:31:53.000Z,50.7
2023-02-21T08:33:09.000Z,52.8
2023-02-21T08:34:26.000Z,56.4
2023-02-21T08:35:42.000Z,50.7
2023-02-21T08:36:57.000Z,53.8
2023-02-21T08:38:12.000Z,49.8
2023-02-21T08:39:29.000Z,66
2023-02-21T08:40:45.000Z,49.6
2023-02-21T08:42:01.000Z,58.8
2023-02-21T08:43:16.000Z,53.3
2023-02-21T08:44:32.303Z,55.1
2023-02-21T08:45:48.000Z,52.5
2023-02-21T08:47:04.000Z,53.5
2023-02-21T08:48:20.000Z,49.9
2023-02-21T08:49:36.000Z,57.7
2023-02-21T08:50:53.000Z,63.4
2023-02-21T08:52:09.681Z,58.1
2023-02-21T08:53:25.000Z,56.5
2023-02-21T08:54:41.000Z,51.9
2023-02-21T08:55:58.000Z,59.1
2023-02-21T08:57:14.000Z,49.8
2023-02-21T08:59:46.000Z,52.2
2023-02-21T09:01:02.000Z,55.3
2023-02-21T09:02:18.000Z,56.3
2023-02-21T09:03:34.000Z,56.5
2023-02-21T09:04:50.000Z,55.4
2023-02-21T09:06:07.000Z,55.1
2023-02-21T09:07:23.000Z,49.2
2023-02-21T09:08:39.740Z,61.7
2023-02-21T09:09:55.000Z,52.8
2023-02-21T09:11:10.000Z,55.2
2023-02-21T09:12:26.000Z,56.4
2023-02-21T09:13:41.000Z,51.8
2023-02-21T09:14:56.000Z,61.3
2023-02-21T09:16:12.000Z,52.7
2023-02-21T09:17:29.000Z,55.5
2023-02-21T09:18:45.000Z,47.2
2023-02-21T09:20:01.000Z,53.7
2023-02-21T09:21:18.154Z,60.4
2023-02-21T09:22:34.000Z,52.2
2023-02-21T09:23:50.000Z,56.8
2023-02-21T09:25:06.000Z,54.7
2023-02-21T09:26:22.000Z,54.4
2023-02-21T09:27:39.000Z,56.8
2023-02-21T09:28:55.000Z,57.5
2023-02-21T09:30:11.000Z,57
2023-02-21T09:31:26.000Z,52.6
2023-02-21T09:32:43.000Z,47.5
2023-02-21T09:33:59.565Z,53.2
2023-02-21T09:35:15.000Z,62
2023-02-21T09:37:47.000Z,53.7
2023-02-21T09:39:04.000Z,55.7
2023-02-21T09:40:20.000Z,61.8
2023-02-21T09:41:36.000Z,55.3
2023-02-21T09:42:52.000Z,50.9
2023-02-21T09:44:09.000Z,49.3
2023-02-21T09:45:25.000Z,51
2023-02-21T09:47:57.000Z,52.3
2023-02-21T09:49:13.000Z,53.4
2023-02-21T09:50:29.544Z,65.7
2023-02-21T09:51:45.000Z,43.7
2023-02-21T09:53:01.000Z,46.9
2023-02-21T09:54:18.000Z,56.8
2023-02-21T09:55:34.000Z,50.9
2023-02-21T09:56:49.000Z,42.7
2023-02-21T09:58:05.000Z,52.2
2023-02-21T09:59:22.215Z,49.7
2023-02-21T10:00:38.000Z,45.6
2023-02-21T10:01:54.000Z,57.5
2023-02-21T10:03:10.918Z,44.8
2023-02-21T10:04:26.000Z,43.9
2023-02-21T10:05:43.000Z,49.4
2023-02-21T10:06:59.000Z,47.2
2023-02-21T10:08:15.000Z,45.9
2023-02-21T10:09:31.000Z,46.2
2023-02-21T10:10:48.000Z,44.8
2023-02-21T10:12:04.000Z,46
2023-02-21T10:13:19.000Z,47.9
2023-02-21T10:14:36.033Z,46.2
2023-02-21T10:15:52.000Z,44.1
2023-02-21T10:17:08.000Z,44.9
2023-02-21T10:18:24.708Z,50.3
2023-02-21T10:19:40.000Z,46
2023-02-21T10:20:56.000Z,49.2
2023-02-21T10:22:13.000Z,47.8
2023-02-21T10:23:29.000Z,36.3
2023-02-21T10:24:45.000Z,37.4
2023-02-21T10:26:01.000Z,39.2
2023-02-21T10:28:34.000Z,43.2
2023-02-21T10:29:49.000Z,36.3
2023-02-21T10:31:05.000Z,41.7
2023-02-21T10:32:22.000Z,46.6
2023-02-21T10:33:38.000Z,36.8
2023-02-21T10:34:54.000Z,45.8
2023-02-21T10:36:10.000Z,36.4
2023-02-21T10:37:26.000Z,37
2023-02-21T10:38:43.493Z,42.5
2023-02-21T10:39:59.701Z,36.3
2023-02-21T10:41:15.000Z,35.4
2023-02-21T10:42:31.000Z,36.7
2023-02-21T10:43:48.000Z,34
2023-02-21T10:45:04.000Z,34.9
2023-02-21T10:46:19.000Z,40.9
2023-02-21T10:47:35.000Z,42.7
2023-02-21T10:48:52.000Z,33.1
2023-02-21T10:50:08.000Z,29.5
2023-02-21T10:51:24.000Z,30.8
2023-02-21T10:52:41.073Z,30.9
2023-02-21T10:53:57.000Z,31.4
2023-02-21T10:55:12.000Z,31.6
2023-02-21T10:56:27.000Z,24.8
2023-02-21T10:57:43.000Z,34.8
2023-02-21T10:58:59.000Z,33.1
2023-02-21T11:00:14.000Z,25.7
2023-02-21T11:01:30.000Z,33.8
2023-02-21T11:02:46.000Z,33.3
2023-02-21T11:04:02.000Z,32.7
2023-02-21T11:05:19.000Z,31.9
2023-02-21T11:06:35.000Z,27
2023-02-21T11:07:51.000Z,28.2
2023-02-21T11:09:07.000Z,28.7
2023-02-21T11:10:24.000Z,31.4
2023-02-21T11:11:40.000Z,30.4
2023-02-21T11:12:56.000Z,28.3
2023-02-21T11:14:13.113Z,29.4
2023-02-21T11:15:29.000Z,25.8
2023-02-21T11:16:44.000Z,23.1
2023-02-21T11:18:00.000Z,32
2023-02-21T11:19:16.000Z,29.6
2023-02-21T11:20:33.000Z,25.2
2023-02-21T11:21:49.000Z,37
2023-02-21T11:23:05.000Z,33.2
2023-02-21T11:24:21.000Z,32.4
2023-02-21T11:25:37.000Z,29.4
2023-02-21T11:26:54.000Z,26.6
2023-02-21T11:28:10.000Z,26.9
2023-02-21T11:29:26.921Z,27.5
2023-02-21T11:30:43.159Z,35.5
2023-02-21T11:31:59.000Z,28.5
2023-02-21T11:33:14.000Z,23.6
2023-02-21T11:34:30.000Z,26.2
2023-02-21T11:35:46.000Z,29.5
2023-02-21T11:37:03.000Z,27.7
2023-02-21T11:38:19.000Z,31.2
2023-02-21T11:39:35.000Z,32.7
2023-02-21T11:40:51.000Z,30
2023-02-21T11:42:08.289Z,24.8
2023-02-21T11:43:24.521Z,29.1
2023-02-21T11:44:40.740Z,26.7
2023-02-21T11:45:56.000Z,30
2023-02-21T11:47:12.000Z,25.1
2023-02-21T11:48:29.000Z,25.6
2023-02-21T11:49:44.000Z,26.6
2023-02-21T11:51:00.000Z,25.1
2023-02-21T11:52:16.000Z,27.9
2023-02-21T11:53:33.000Z,22.1
2023-02-21T11:54:49.000Z,25.4
2023-02-21T11:56:05.000Z,22.7
2023-02-21T11:57:21.000Z,30.2
2023-02-21T11:58:38.000Z,27.2
2023-02-21T11:59:54.000Z,29.8
2023-02-21T12:01:10.000Z,21.1
2023-02-21T12:02:27.041Z,20.1
2023-02-21T12:03:43.000Z,23.8
2023-02-21T12:04:59.000Z,26.9
2023-02-21T12:06:14.000Z,27.4
2023-02-21T12:07:30.000Z,24.3
2023-02-21T12:08:46.000Z,22.7
2023-02-21T12:10:03.440Z,20.7
2023-02-21T12:11:19.000Z,22.5
2023-02-21T12:12:35.000Z,23.3
2023-02-21T12:13:51.000Z,25.6
2023-02-21T12:15:08.000Z,28.5
2023-02-21T12:16:24.000Z,20.2
2023-02-21T12:17:40.000Z,24.6
2023-02-21T12:18:56.000Z,23.1
2023-02-21T12:20:13.000Z,22.4
2023-02-21T12:21:29.555Z,21
2023-02-21T12:22:44.000Z,24.9
2023-02-21T12:24:00.063Z,23.2
2023-02-21T12:25:15.000Z,24.6
2023-02-21T12:26:31.000Z,19.7
2023-02-21T12:27:46.000Z,24.2
2023-02-21T12:29:02.037Z,23.2
2023-02-21T12:30:18.000Z,18.5
2023-02-21T12:31:34.000Z,23.2
2023-02-21T12:32:50.000Z,22
2023-02-21T12:34:06.000Z,16
2023-02-21T12:35:22.000Z,23.6
2023-02-21T12:36:39.000Z,18
2023-02-21T12:37:55.000Z,20.1
2023-02-21T12:39:11.000Z,21.2
2023-02-21T12:40:28.141Z,20.5
2023-02-21T12:41:44.000Z,22.4
2023-02-21T12:43:00.000Z,26.4
2023-02-21T12:44:16.000Z,18.7
2023-02-21T12:45:31.000Z,18.1
2023-02-21T12:48:04.000Z,17.9
2023-02-21T12:49:20.000Z,20.9
2023-02-21T12:50:36.000Z,18.5
2023-02-21T12:51:53.000Z,18.5
2023-02-21T12:53:09.000Z,20.8
2023-02-21T12:54:25.000Z,21.5
2023-02-21T12:55:41.000Z,16.1
2023-02-21T12:56:57.000Z,19.4
2023-02-21T12:58:14.000Z,22.2
2023-02-21T12:59:30.674Z,18
2023-02-21T13:00:46.000Z,20.2
2023-02-21T13:02:01.000Z,18.4
2023-02-21T13:03:18.000Z,19.2
2023-02-21T13:04:34.000Z,19
2023-02-21T13:05:50.000Z,20.4
2023-02-21T13:07:06.000Z,16.8
2023-02-21T13:08:23.000Z,17
2023-02-21T13:09:39.000Z,18.3
2023-02-21T13:10:55.000Z,19.3
2023-02-21T13:12:11.000Z,20.7
2023-02-21T13:13:28.000Z,20
2023-02-21T13:14:44.000Z,19
2023-02-21T13:16:00.000Z,19.3
2023-02-21T13:17:16.000Z,16.5
2023-02-21T13:18:31.000Z,21.3
2023-02-21T13:19:48.000Z,23
2023-02-21T13:22:20.000Z,21.9
2023-02-21T13:23:36.000Z,21.8
2023-02-21T13:26:09.000Z,18.8
2023-02-21T13:27:25.000Z,17.7
2023-02-21T13:28:41.000Z,18.9
2023-02-21T13:29:58.000Z,21.8
2023-02-21T13:31:14.534Z,16
2023-02-21T13:32:30.000Z,24.6
2023-02-21T13:33:47.012Z,18.4
2023-02-21T13:35:02.000Z,16.3
2023-02-21T13:36:18.000Z,20
2023-02-21T13:38:50.000Z,17.4
2023-02-21T13:40:05.000Z,21.6
2023-02-21T13:41:21.000Z,20.1
2023-02-21T13:42:37.000Z,20
2023-02-21T13:43:53.000Z,24.1
2023-02-21T13:45:09.000Z,22.7
2023-02-21T13:46:26.000Z,25.2
2023-02-21T13:47:42.000Z,23.1
2023-02-21T13:48:58.867Z,19.8
2023-02-21T13:50:15.106Z,24.3
2023-02-21T13:51:31.000Z,19.9
2023-02-21T13:52:47.000Z,22.4
2023-02-21T13:54:02.000Z,23.2
2023-02-21T13:55:17.000Z,21.2
2023-02-21T13:56:34.337Z,22.7
2023-02-21T13:57:50.000Z,19.3
2023-02-21T13:59:06.000Z,20.9
2023-02-21T14:00:22.000Z,19
2023-02-21T14:01:38.000Z,18.4
2023-02-21T14:02:55.000Z,19.1
2023-02-21T14:05:27.000Z,17.9
2023-02-21T14:06:44.179Z,18.1
2023-02-21T14:08:00.000Z,22.1
2023-02-21T14:09:16.000Z,20.3
2023-02-21T14:10:32.000Z,22.1
2023-02-21T14:11:48.116Z,15.8
2023-02-21T14:13:04.000Z,21.4
2023-02-21T14:14:20.000Z,18.9
2023-02-21T14:16:52.000Z,20.9
2023-02-21T14:18:08.000Z,24.1
2023-02-21T14:19:23.576Z,25.2
2023-02-21T14:20:39.000Z,29.2
2023-02-21T14:21:55.000Z,32.4
2023-02-21T14:23:12.000Z,29.9
2023-02-21T14:24:28.000Z,32.6
2023-02-21T14:25:44.000Z,35.7
2023-02-21T14:27:00.989Z,35.5
2023-02-21T14:29:33.000Z,34.5
2023-02-21T14:30:49.000Z,34.1
2023-02-21T14:32:05.908Z,32.2
2023-02-21T14:33:21.000Z,27.1
2023-02-21T14:34:38.381Z,24.7
2023-02-21T14:35:53.000Z,23.8
2023-02-21T14:37:09.000Z,25.4
2023-02-21T14:38:25.000Z,23.4
2023-02-21T14:39:42.000Z,21
2023-02-21T14:40:58.000Z,18.6
2023-02-21T14:43:30.000Z,31.7
2023-02-21T14:44:46.000Z,24.6
2023-02-21T14:46:01.000Z,23.9
2023-02-21T14:47:17.000Z,28.5
2023-02-21T14:48:33.000Z,28.3
2023-02-21T14:51:06.000Z,23.6
2023-02-21T14:52:22.000Z,23.9
2023-02-21T14:54:54.000Z,20.6
2023-02-21T14:56:11.000Z,24
2023-02-21T14:58:43.000Z,24
2023-02-21T14:59:59.000Z,29.2
2023-02-21T15:01:16.000Z,27
2023-02-21T15:02:31.000Z,22.6
2023-02-21T15:03:47.000Z,24.4
2023-02-21T15:05:04.059Z,27.3
2023-02-21T15:06:20.000Z,26
2023-02-21T15:07:36.000Z,22.8
2023-02-21T15:08:52.000Z,26.4
2023-02-21T15:10:08.000Z,25.5
2023-02-21T15:11:24.000Z,37.9
2023-02-21T15:13:57.000Z,21.3
2023-02-21T15:15:13.000Z,23.5
2023-02-21T15:16:29.000Z,22.4
2023-02-21T15:17:46.000Z,23.5
2023-02-21T15:19:01.635Z,26.3
2023-02-21T15:21:33.000Z,16
2023-02-21T15:22:50.000Z,17.7
2023-02-21T15:24:06.000Z,19.7
2023-02-21T15:25:22.000Z,19.8
2023-02-21T15:26:38.000Z,22.4
2023-02-21T15:27:55.000Z,19.3
2023-02-21T15:29:11.000Z,22.7
2023-02-21T15:30:27.000Z,19.6
2023-02-21T15:32:59.000Z,18
2023-02-21T15:34:16.000Z,20.5
2023-02-21T15:35:31.000Z,20.4
2023-02-21T15:36:47.000Z,17.1
2023-02-21T15:38:03.000Z,19.5
2023-02-21T15:39:20.000Z,22.1
2023-02-21T15:40:36.000Z,16.1
2023-02-21T15:41:51.000Z,19.1
2023-02-21T15:43:06.000Z,22.8
2023-02-21T15:45:39.000Z,20.5
2023-02-21T15:46:55.000Z,24.7
2023-02-21T15:48:11.000Z,21.7
2023-02-21T15:49:27.000Z,21.6
2023-02-21T15:50:42.000Z,19.5
2023-02-21T15:51:58.000Z,25.1
2023-02-21T15:53:14.000Z,25.3
2023-02-21T15:54:31.000Z,24.9
2023-02-21T15:55:47.000Z,24.2
2023-02-21T15:57:03.739Z,25.6
2023-02-21T15:58:19.000Z,21.7
2023-02-21T15:59:35.000Z,25.9
2023-02-21T16:00:52.000Z,25.5
2023-02-21T16:02:08.000Z,23
2023-02-21T16:03:23.000Z,23.8
2023-02-21T16:04:38.000Z,27.9
2023-02-21T16:05:55.000Z,26
2023-02-21T16:07:11.000Z,28
2023-02-21T16:08:27.000Z,29.2
2023-02-21T16:09:44.101Z,25.9
2023-02-21T16:11:00.000Z,30.1
2023-02-21T16:12:16.000Z,29.6
2023-02-21T16:13:32.814Z,23.3
2023-02-21T16:14:48.000Z,29.7
2023-02-21T16:16:05.000Z,28.7
2023-02-21T16:17:20.000Z,27.9
2023-02-21T16:18:35.000Z,30.1
2023-02-21T16:19:51.000Z,33.6
2023-02-21T16:21:08.000Z,25.5
2023-02-21T16:22:24.000Z,28.1
2023-02-21T16:23:40.000Z,31.4
2023-02-21T16:24:56.000Z,31.2
2023-02-21T16:26:12.000Z,28.9
2023-02-21T16:27:29.000Z,31.8
2023-02-21T16:28:45.000Z,31.7
2023-02-21T16:30:01.000Z,32.3
2023-02-21T16:31:17.000Z,33.6
2023-02-21T16:32:34.000Z,29.6
2023-02-21T16:33:50.000Z,32.4
2023-02-21T16:35:05.835Z,34.3
2023-02-21T16:36:21.000Z,31.9
2023-02-21T16:37:38.291Z,36.8
2023-02-21T16:38:54.000Z,39.3
2023-02-21T16:40:10.000Z,38.8
2023-02-21T16:41:26.000Z,37.4
2023-02-21T16:42:42.000Z,38.1
2023-02-21T16:43:58.500Z,36
2023-02-21T16:45:13.000Z,39.4
2023-02-21T16:46:29.000Z,38.1
2023-02-21T16:47:46.215Z,42.6
2023-02-21T16:49:02.000Z,43.4
2023-02-21T16:50:17.000Z,44
2023-02-21T16:51:32.970Z,47.9
2023-02-21T16:52:49.201Z,43.5
2023-02-21T16:54:05.000Z,48
2023-02-21T16:55:21.000Z,48.2
2023-02-21T16:56:37.000Z,44.1
2023-02-21T16:57:53.000Z,45.5
2023-02-21T16:59:10.000Z,41.1
2023-02-21T17:00:26.000Z,49.6
2023-02-21T17:01:42.000Z,46.1
2023-02-21T17:02:59.071Z,66.2
2023-02-21T17:04:15.000Z,53
2023-02-21T17:05:31.000Z,54.1
2023-02-21T17:06:47.000Z,47
2023-02-21T17:08:02.000Z,56.8
2023-02-21T17:09:19.000Z,86.4
2023-02-21T17:10:35.000Z,57.6
2023-02-21T17:11:51.000Z,60.9
2023-02-21T17:14:23.000Z,70.1
2023-02-21T17:15:40.000Z,70.6
2023-02-21T17:16:56.000Z,69.4
2023-02-21T17:18:11.000Z,69.3
2023-02-21T17:19:26.000Z,77.4
2023-02-21T17:20:43.000Z,66.7
2023-02-21T17:21:59.000Z,66.5
2023-02-21T17:23:14.000Z,68.2
2023-02-21T17:24:30.000Z,71.9
2023-02-21T17:25:46.000Z,76.3
2023-02-21T17:27:02.000Z,66.5
2023-02-21T17:28:19.000Z,73.2
2023-02-21T17:29:35.000Z,66.8
2023-02-21T17:30:51.000Z,77.7
2023-02-21T17:32:07.000Z,74.1